sensor_id;sensor_type;location;lat;lon;timestamp;temperature;humidity
19646;DHT22;9971;52.446;13.452;2023-02-15T00:02:53;11.60;99.90
19646;DHT22;9971;52.446;13.452;2023-02-15T00:07:56;12.10;99.90
19646;DHT22;9971;52.446;13.452;2023-02-15T00:12:59;12.60;99.90
19646;DHT22;9971;52.446;13.452;2023-02-15T00:18:01;12.90;99.90
19646;DHT22;9971;52.446;13.452;2023-02-15T00:23:03;13.20;99.90
19646;DHT22;9971;52.446;13.452;2023-02-15T00:28:05;13.50;99.90
19646;DHT22;9971;52.446;13.452;2023-02-15T00:33:08;13.70;99.90
19646;DHT22;9971;52.446;13.452;2023-02-15T00:38:10;13.90;99.90
19646;DHT22;9971;52.446;13.452;2023-02-15T00:43:13;14.10;99.90
19646;DHT22;9971;52.446;13.452;2023-02-15T00:48:15;14.20;99.90
19646;DHT22;9971;52.446;13.452;2023-02-15T00:53:18;14.40;99.90
19646;DHT22;9971;52.446;13.452;2023-02-15T00:58:20;14.50;99.90
19646;DHT22;9971;52.446;13.452;2023-02-15T01:03:22;14.60;99.90
19646;DHT22;9971;52.446;13.452;2023-02-15T01:08:25;14.70;99.90
19646;DHT22;9971;52.446;13.452;2023-02-15T01:13:27;14.80;99.90
19646;DHT22;9971;52.446;13.452;2023-02-15T01:18:30;14.90;99.90
19646;DHT22;9971;52.446;13.452;2023-02-15T01:23:32;15.00;99.90
19646;DHT22;9971;52.446;13.452;2023-02-15T01:28:34;15.10;99.90
19646;DHT22;9971;52.446;13.452;2023-02-15T01:33:36;15.20;99.50
19646;DHT22;9971;52.446;13.452;2023-02-15T01:38:38;15.30;98.50
19646;DHT22;9971;52.446;13.452;2023-02-15T01:43:42;15.30;97.70
19646;DHT22;9971;52.446;13.452;2023-02-15T01:48:47;15.40;97.10
19646;DHT22;9971;52.446;13.452;2023-02-15T01:53:53;15.50;96.70
19646;DHT22;9971;52.446;13.452;2023-02-15T01:58:54;15.50;96.20
19646;DHT22;9971;52.446;13.452;2023-02-15T02:04:05;15.60;95.50
19646;DHT22;9971;52.446;13.452;2023-02-15T02:09:03;15.60;94.90
19646;DHT22;9971;52.446;13.452;2023-02-15T02:14:06;15.70;94.30
19646;DHT22;9971;52.446;13.452;2023-02-15T02:19:14;15.70;93.70
19646;DHT22;9971;52.446;13.452;2023-02-15T02:24:22;15.80;93.10
19646;DHT22;9971;52.446;13.452;2023-02-15T02:29:33;15.80;92.60
19646;DHT22;9971;52.446;13.452;2023-02-15T02:34:47;15.80;92.10
19646;DHT22;9971;52.446;13.452;2023-02-15T02:45:13;15.90;91.10
19646;DHT22;9971;52.446;13.452;2023-02-15T02:50:14;16.00;91.00
19646;DHT22;9971;52.446;13.452;2023-02-15T02:55:16;16.00;90.40
19646;DHT22;9971;52.446;13.452;2023-02-15T03:00:17;16.00;90.10
19646;DHT22;9971;52.446;13.452;2023-02-15T03:05:20;16.00;89.90
19646;DHT22;9971;52.446;13.452;2023-02-15T03:10:21;16.10;89.20
19646;DHT22;9971;52.446;13.452;2023-02-15T03:15:24;16.10;88.20
19646;DHT22;9971;52.446;13.452;2023-02-15T03:20:28;16.10;87.30
19646;DHT22;9971;52.446;13.452;2023-02-15T03:25:31;16.10;86.70
19646;DHT22;9971;52.446;13.452;2023-02-15T03:30:30;16.10;85.90
19646;DHT22;9971;52.446;13.452;2023-02-15T03:35:40;16.20;85.20
19646;DHT22;9971;52.446;13.452;2023-02-15T03:40:41;16.10;84.30
19646;DHT22;9971;52.446;13.452;2023-02-15T03:45:49;16.10;83.60
19646;DHT22;9971;52.446;13.452;2023-02-15T03:51:00;16.20;82.50
19646;DHT22;9971;52.446;13.452;2023-02-15T03:56:07;16.20;81.90
19646;DHT22;9971;52.446;13.452;2023-02-15T04:01:13;16.20;81.50
19646;DHT22;9971;52.446;13.452;2023-02-15T04:06:19;16.20;81.20
19646;DHT22;9971;52.446;13.452;2023-02-15T04:11:21;16.30;81.30
19646;DHT22;9971;52.446;13.452;2023-02-15T04:16:24;16.20;80.90
19646;DHT22;9971;52.446;13.452;2023-02-15T04:21:26;16.20;80.50
19646;DHT22;9971;52.446;13.452;2023-02-15T04:26:33;16.20;80.10
19646;DHT22;9971;52.446;13.452;2023-02-15T04:31:36;16.20;79.80
19646;DHT22;9971;52.446;13.452;2023-02-15T04:36:38;16.20;79.50
19646;DHT22;9971;52.446;13.452;2023-02-15T04:41:40;16.30;78.90
19646;DHT22;9971;52.446;13.452;2023-02-15T04:46:43;16.30;78.70
19646;DHT22;9971;52.446;13.452;2023-02-15T04:51:45;16.30;78.50
19646;DHT22;9971;52.446;13.452;2023-02-15T04:56:48;16.30;78.70
19646;DHT22;9971;52.446;13.452;2023-02-15T05:01:50;16.30;79.30
19646;DHT22;9971;52.446;13.452;2023-02-15T05:06:52;16.30;80.20
19646;DHT22;9971;52.446;13.452;2023-02-15T05:11:55;16.30;81.40
19646;DHT22;9971;52.446;13.452;2023-02-15T05:16:57;16.30;81.70
19646;DHT22;9971;52.446;13.452;2023-02-15T05:22:00;16.30;81.30
19646;DHT22;9971;52.446;13.452;2023-02-15T05:27:02;16.30;81.80
19646;DHT22;9971;52.446;13.452;2023-02-15T05:32:11;16.30;81.30
19646;DHT22;9971;52.446;13.452;2023-02-15T05:37:12;16.40;82.60
19646;DHT22;9971;52.446;13.452;2023-02-15T05:42:14;16.40;85.80
19646;DHT22;9971;52.446;13.452;2023-02-15T05:47:17;16.40;88.70
19646;DHT22;9971;52.446;13.452;2023-02-15T05:52:19;16.40;89.20
19646;DHT22;9971;52.446;13.452;2023-02-15T05:57:21;16.40;91.00
19646;DHT22;9971;52.446;13.452;2023-02-15T06:02:24;16.40;90.30
19646;DHT22;9971;52.446;13.452;2023-02-15T06:07:26;16.40;90.30
19646;DHT22;9971;52.446;13.452;2023-02-15T06:12:29;16.40;97.30
19646;DHT22;9971;52.446;13.452;2023-02-15T06:17:31;16.40;96.30
19646;DHT22;9971;52.446;13.452;2023-02-15T06:22:33;16.40;96.00
19646;DHT22;9971;52.446;13.452;2023-02-15T06:27:36;16.40;94.80
19646;DHT22;9971;52.446;13.452;2023-02-15T06:32:38;16.40;93.30
19646;DHT22;9971;52.446;13.452;2023-02-15T06:37:40;16.40;92.10
19646;DHT22;9971;52.446;13.452;2023-02-15T06:42:43;16.40;91.80
19646;DHT22;9971;52.446;13.452;2023-02-15T06:47:45;16.40;91.20
19646;DHT22;9971;52.446;13.452;2023-02-15T06:52:47;16.40;91.20
19646;DHT22;9971;52.446;13.452;2023-02-15T06:57:50;16.40;91.20
19646;DHT22;9971;52.446;13.452;2023-02-15T07:02:55;16.40;90.90
19646;DHT22;9971;52.446;13.452;2023-02-15T07:07:58;16.40;91.40
19646;DHT22;9971;52.446;13.452;2023-02-15T07:13:00;16.40;92.70
19646;DHT22;9971;52.446;13.452;2023-02-15T07:18:02;16.40;94.30
19646;DHT22;9971;52.446;13.452;2023-02-15T07:23:04;16.40;94.50
19646;DHT22;9971;52.446;13.452;2023-02-15T07:28:07;16.40;95.80
19646;DHT22;9971;52.446;13.452;2023-02-15T07:33:09;16.40;97.60
19646;DHT22;9971;52.446;13.452;2023-02-15T07:38:16;16.40;99.90
19646;DHT22;9971;52.446;13.452;2023-02-15T07:43:19;16.40;99.90
19646;DHT22;9971;52.446;13.452;2023-02-15T07:48:21;16.50;99.90
19646;DHT22;9971;52.446;13.452;2023-02-15T07:53:24;16.50;99.90
19646;DHT22;9971;52.446;13.452;2023-02-15T07:58:26;16.50;99.90
19646;DHT22;9971;52.446;13.452;2023-02-15T08:03:29;16.50;99.90
19646;DHT22;9971;52.446;13.452;2023-02-15T08:08:33;16.60;99.90
19646;DHT22;9971;52.446;13.452;2023-02-15T08:13:33;16.60;99.90
19646;DHT22;9971;52.446;13.452;2023-02-15T08:18:36;16.60;99.60
19646;DHT22;9971;52.446;13.452;2023-02-15T08:23:38;16.60;96.10
19646;DHT22;9971;52.446;13.452;2023-02-15T08:28:41;16.50;96.90
19646;DHT22;9971;52.446;13.452;2023-02-15T08:33:43;16.50;97.20
19646;DHT22;9971;52.446;13.452;2023-02-15T08:38:45;16.50;96.40
19646;DHT22;9971;52.446;13.452;2023-02-15T08:43:48;16.50;96.80
19646;DHT22;9971;52.446;13.452;2023-02-15T08:48:49;16.40;99.10
19646;DHT22;9971;52.446;13.452;2023-02-15T08:53:52;16.40;98.70
19646;DHT22;9971;52.446;13.452;2023-02-15T08:58:53;16.40;97.50
19646;DHT22;9971;52.446;13.452;2023-02-15T09:03:57;16.40;96.60
19646;DHT22;9971;52.446;13.452;2023-02-15T09:08:58;16.40;95.30
19646;DHT22;9971;52.446;13.452;2023-02-15T09:14:01;16.50;93.70
19646;DHT22;9971;52.446;13.452;2023-02-15T09:19:03;16.40;93.10
19646;DHT22;9971;52.446;13.452;2023-02-15T09:24:08;16.40;92.90
19646;DHT22;9971;52.446;13.452;2023-02-15T09:29:09;16.50;93.20
19646;DHT22;9971;52.446;13.452;2023-02-15T09:34:13;16.40;92.30
19646;DHT22;9971;52.446;13.452;2023-02-15T09:39:16;16.50;92.20
19646;DHT22;9971;52.446;13.452;2023-02-15T09:45:30;16.50;92.10
19646;DHT22;9971;52.446;13.452;2023-02-15T09:49:42;16.50;92.00
19646;DHT22;9971;52.446;13.452;2023-02-15T09:54:49;16.50;92.30
19646;DHT22;9971;52.446;13.452;2023-02-15T10:10:13;16.60;93.90
19646;DHT22;9971;52.446;13.452;2023-02-15T10:15:41;16.60;95.90
19646;DHT22;9971;52.446;13.452;2023-02-15T10:20:54;16.60;96.40
19646;DHT22;9971;52.446;13.452;2023-02-15T10:25:59;16.60;95.10
19646;DHT22;9971;52.446;13.452;2023-02-15T10:31:04;16.70;93.40
19646;DHT22;9971;52.446;13.452;2023-02-15T10:41:59;16.60;93.70
19646;DHT22;9971;52.446;13.452;2023-02-15T10:47:19;16.70;93.30
19646;DHT22;9971;52.446;13.452;2023-02-15T10:52:27;16.70;91.80
19646;DHT22;9971;52.446;13.452;2023-02-15T11:07:52;16.70;93.50
19646;DHT22;9971;52.446;13.452;2023-02-15T11:12:54;16.70;93.20
19646;DHT22;9971;52.446;13.452;2023-02-15T11:18:01;16.70;93.30
19646;DHT22;9971;52.446;13.452;2023-02-15T11:23:01;16.70;93.20
19646;DHT22;9971;52.446;13.452;2023-02-15T11:28:04;16.70;95.90
19646;DHT22;9971;52.446;13.452;2023-02-15T11:33:05;16.70;96.10
19646;DHT22;9971;52.446;13.452;2023-02-15T11:38:14;16.70;96.70
19646;DHT22;9971;52.446;13.452;2023-02-15T11:43:19;16.70;97.20
19646;DHT22;9971;52.446;13.452;2023-02-15T11:48:18;16.70;98.80
19646;DHT22;9971;52.446;13.452;2023-02-15T11:53:21;16.70;99.90
19646;DHT22;9971;52.446;13.452;2023-02-15T11:58:30;16.80;99.90
19646;DHT22;9971;52.446;13.452;2023-02-15T12:08:43;16.80;98.40
19646;DHT22;9971;52.446;13.452;2023-02-15T12:14:06;16.80;99.00
19646;DHT22;9971;52.446;13.452;2023-02-15T12:19:10;16.80;99.10
19646;DHT22;9971;52.446;13.452;2023-02-15T12:24:26;16.90;99.90
19646;DHT22;9971;52.446;13.452;2023-02-15T12:29:27;16.90;99.90
19646;DHT22;9971;52.446;13.452;2023-02-15T12:34:35;16.90;99.90
19646;DHT22;9971;52.446;13.452;2023-02-15T12:39:34;17.00;99.90
19646;DHT22;9971;52.446;13.452;2023-02-15T12:44:37;17.00;99.90
19646;DHT22;9971;52.446;13.452;2023-02-15T12:49:39;17.00;99.90
19646;DHT22;9971;52.446;13.452;2023-02-15T12:54:42;17.10;99.90
19646;DHT22;9971;52.446;13.452;2023-02-15T12:59:51;17.10;99.90
19646;DHT22;9971;52.446;13.452;2023-02-15T13:04:53;17.10;99.90
19646;DHT22;9971;52.446;13.452;2023-02-15T13:09:55;17.10;99.90
19646;DHT22;9971;52.446;13.452;2023-02-15T13:14:57;17.20;99.90
19646;DHT22;9971;52.446;13.452;2023-02-15T13:20:02;17.20;99.90
19646;DHT22;9971;52.446;13.452;2023-02-15T13:25:09;17.20;99.90
19646;DHT22;9971;52.446;13.452;2023-02-15T13:30:18;17.20;99.90
19646;DHT22;9971;52.446;13.452;2023-02-15T13:35:18;17.30;99.90
19646;DHT22;9971;52.446;13.452;2023-02-15T13:40:30;17.30;99.90
19646;DHT22;9971;52.446;13.452;2023-02-15T13:50:56;17.40;99.90
19646;DHT22;9971;52.446;13.452;2023-02-15T13:55:57;17.40;99.90
19646;DHT22;9971;52.446;13.452;2023-02-15T14:01:18;17.40;99.90
19646;DHT22;9971;52.446;13.452;2023-02-15T14:06:27;17.40;99.90
19646;DHT22;9971;52.446;13.452;2023-02-15T14:12:08;17.40;99.90
19646;DHT22;9971;52.446;13.452;2023-02-15T14:16:54;17.40;99.90
19646;DHT22;9971;52.446;13.452;2023-02-15T14:21:59;17.50;99.90
19646;DHT22;9971;52.446;13.452;2023-02-15T14:27:05;17.50;99.90
19646;DHT22;9971;52.446;13.452;2023-02-15T14:32:08;17.50;99.90
19646;DHT22;9971;52.446;13.452;2023-02-15T14:37:08;17.50;99.90
19646;DHT22;9971;52.446;13.452;2023-02-15T14:42:34;16.70;99.80
19646;DHT22;9971;52.446;13.452;2023-02-15T14:47:35;15.80;99.90
19646;DHT22;9971;52.446;13.452;2023-02-15T14:52:46;15.50;99.90
19646;DHT22;9971;52.446;13.452;2023-02-15T14:57:38;15.20;99.90
19646;DHT22;9971;52.446;13.452;2023-02-15T15:02:46;14.70;99.90
19646;DHT22;9971;52.446;13.452;2023-02-15T15:07:52;14.40;99.90
19646;DHT22;9971;52.446;13.452;2023-02-15T15:12:54;14.10;99.90
19646;DHT22;9971;52.446;13.452;2023-02-15T15:17:58;14.10;99.90
19646;DHT22;9971;52.446;13.452;2023-02-15T15:34:17;14.00;99.90
19646;DHT22;9971;52.446;13.452;2023-02-15T15:49:50;13.40;99.90
19646;DHT22;9971;52.446;13.452;2023-02-15T15:54:55;13.20;99.90
19646;DHT22;9971;52.446;13.452;2023-02-15T15:59:56;13.10;99.90
19646;DHT22;9971;52.446;13.452;2023-02-15T16:05:07;12.90;99.90
19646;DHT22;9971;52.446;13.452;2023-02-15T16:10:19;12.50;99.90
19646;DHT22;9971;52.446;13.452;2023-02-15T16:15:14;12.20;99.90
19646;DHT22;9971;52.446;13.452;2023-02-15T16:20:21;11.80;99.90
19646;DHT22;9971;52.446;13.452;2023-02-15T16:25:27;11.70;99.90
19646;DHT22;9971;52.446;13.452;2023-02-15T16:30:30;11.50;99.90
19646;DHT22;9971;52.446;13.452;2023-02-15T16:35:30;11.30;99.90
19646;DHT22;9971;52.446;13.452;2023-02-15T16:40:40;11.00;99.90
19646;DHT22;9971;52.446;13.452;2023-02-15T16:45:40;10.70;99.90
19646;DHT22;9971;52.446;13.452;2023-02-15T16:50:46;10.30;99.90
19646;DHT22;9971;52.446;13.452;2023-02-15T16:55:44;10.40;99.90
19646;DHT22;9971;52.446;13.452;2023-02-15T17:00:47;10.40;99.90
19646;DHT22;9971;52.446;13.452;2023-02-15T17:05:53;10.00;99.90
19646;DHT22;9971;52.446;13.452;2023-02-15T17:11:03;9.80;99.90
19646;DHT22;9971;52.446;13.452;2023-02-15T17:16:22;9.60;99.90
19646;DHT22;9971;52.446;13.452;2023-02-15T17:21:20;9.40;99.90
19646;DHT22;9971;52.446;13.452;2023-02-15T17:26:21;9.30;99.90
19646;DHT22;9971;52.446;13.452;2023-02-15T17:31:24;9.20;99.90
19646;DHT22;9971;52.446;13.452;2023-02-15T17:36:26;8.90;99.90
19646;DHT22;9971;52.446;13.452;2023-02-15T17:41:29;8.70;99.90
19646;DHT22;9971;52.446;13.452;2023-02-15T17:46:32;8.70;99.90
19646;DHT22;9971;52.446;13.452;2023-02-15T17:51:32;8.60;99.90
19646;DHT22;9971;52.446;13.452;2023-02-15T18:21:34;8.50;99.90
19646;DHT22;9971;52.446;13.452;2023-02-15T18:26:36;11.40;99.90
19646;DHT22;9971;52.446;13.452;2023-02-15T18:31:38;9.60;99.90
19646;DHT22;9971;52.446;13.452;2023-02-15T18:36:43;8.70;99.90
19646;DHT22;9971;52.446;13.452;2023-02-15T18:41:43;8.10;99.90
19646;DHT22;9971;52.446;13.452;2023-02-15T18:46:46;7.80;99.90
19646;DHT22;9971;52.446;13.452;2023-02-15T18:51:48;7.60;99.90
19646;DHT22;9971;52.446;13.452;2023-02-15T18:56:57;7.50;99.90
19646;DHT22;9971;52.446;13.452;2023-02-15T19:02:01;7.40;99.90
19646;DHT22;9971;52.446;13.452;2023-02-15T19:07:04;7.20;99.90
19646;DHT22;9971;52.446;13.452;2023-02-15T19:12:07;7.00;99.90
19646;DHT22;9971;52.446;13.452;2023-02-15T19:17:15;7.00;99.90
19646;DHT22;9971;52.446;13.452;2023-02-15T19:22:32;6.90;99.90
19646;DHT22;9971;52.446;13.452;2023-02-15T19:27:34;6.90;99.90
19646;DHT22;9971;52.446;13.452;2023-02-15T19:32:36;6.80;99.90
19646;DHT22;9971;52.446;13.452;2023-02-15T19:37:39;6.70;99.90
19646;DHT22;9971;52.446;13.452;2023-02-15T19:42:41;6.60;99.90
19646;DHT22;9971;52.446;13.452;2023-02-15T19:47:42;6.40;99.90
19646;DHT22;9971;52.446;13.452;2023-02-15T19:52:46;6.40;99.90
19646;DHT22;9971;52.446;13.452;2023-02-15T19:57:48;6.40;99.90
19646;DHT22;9971;52.446;13.452;2023-02-15T20:02:50;6.40;99.90
19646;DHT22;9971;52.446;13.452;2023-02-15T20:07:52;6.30;99.90
19646;DHT22;9971;52.446;13.452;2023-02-15T20:12:54;6.20;99.90
19646;DHT22;9971;52.446;13.452;2023-02-15T20:17:57;6.20;99.90
19646;DHT22;9971;52.446;13.452;2023-02-15T20:22:58;6.10;99.90
19646;DHT22;9971;52.446;13.452;2023-02-15T20:28:00;6.10;99.90
19646;DHT22;9971;52.446;13.452;2023-02-15T20:33:02;5.90;99.90
19646;DHT22;9971;52.446;13.452;2023-02-15T20:38:04;5.90;99.90
19646;DHT22;9971;52.446;13.452;2023-02-15T20:43:08;5.80;99.90
19646;DHT22;9971;52.446;13.452;2023-02-15T20:48:09;5.80;99.90
19646;DHT22;9971;52.446;13.452;2023-02-15T20:53:11;5.90;99.90
19646;DHT22;9971;52.446;13.452;2023-02-15T20:58:22;5.90;99.90
19646;DHT22;9971;52.446;13.452;2023-02-15T21:03:23;5.80;99.90
19646;DHT22;9971;52.446;13.452;2023-02-15T21:08:25;5.90;99.90
19646;DHT22;9971;52.446;13.452;2023-02-15T21:13:30;5.80;99.90
19646;DHT22;9971;52.446;13.452;2023-02-15T21:18:32;6.00;99.90
19646;DHT22;9971;52.446;13.452;2023-02-15T21:23:35;6.00;99.90
19646;DHT22;9971;52.446;13.452;2023-02-15T21:28:36;5.90;99.90
19646;DHT22;9971;52.446;13.452;2023-02-15T21:33:39;5.80;99.90
19646;DHT22;9971;52.446;13.452;2023-02-15T21:38:41;5.60;99.90
19646;DHT22;9971;52.446;13.452;2023-02-15T21:43:43;5.50;99.90
19646;DHT22;9971;52.446;13.452;2023-02-15T21:48:53;5.50;99.90
19646;DHT22;9971;52.446;13.452;2023-02-15T21:53:55;5.50;99.90
19646;DHT22;9971;52.446;13.452;2023-02-15T21:58:58;5.50;99.90
19646;DHT22;9971;52.446;13.452;2023-02-15T22:04:00;5.50;99.90
19646;DHT22;9971;52.446;13.452;2023-02-15T22:09:08;5.40;99.90
19646;DHT22;9971;52.446;13.452;2023-02-15T22:14:05;5.50;99.90
19646;DHT22;9971;52.446;13.452;2023-02-15T22:19:09;5.40;99.90
19646;DHT22;9971;52.446;13.452;2023-02-15T22:24:10;5.40;99.90
19646;DHT22;9971;52.446;13.452;2023-02-15T22:29:15;5.30;99.90
19646;DHT22;9971;52.446;13.452;2023-02-15T22:34:27;5.20;99.90
19646;DHT22;9971;52.446;13.452;2023-02-15T22:39:28;5.70;99.90
19646;DHT22;9971;52.446;13.452;2023-02-15T22:44:31;6.50;99.90
19646;DHT22;9971;52.446;13.452;2023-02-15T22:49:33;7.30;99.90
19646;DHT22;9971;52.446;13.452;2023-02-15T22:54:35;7.90;99.90
19646;DHT22;9971;52.446;13.452;2023-02-15T22:59:38;8.60;99.90
19646;DHT22;9971;52.446;13.452;2023-02-15T23:04:41;9.10;99.90
19646;DHT22;9971;52.446;13.452;2023-02-15T23:09:44;9.50;99.90
19646;DHT22;9971;52.446;13.452;2023-02-15T23:14:46;10.00;99.90
19646;DHT22;9971;52.446;13.452;2023-02-15T23:19:48;10.40;99.90
19646;DHT22;9971;52.446;13.452;2023-02-15T23:24:51;10.80;99.90
19646;DHT22;9971;52.446;13.452;2023-02-15T23:29:53;11.10;99.90
19646;DHT22;9971;52.446;13.452;2023-02-15T23:34:55;11.40;99.90
19646;DHT22;9971;52.446;13.452;2023-02-15T23:39:57;11.60;99.90
19646;DHT22;9971;52.446;13.452;2023-02-15T23:45:10;11.90;99.90
19646;DHT22;9971;52.446;13.452;2023-02-15T23:50:18;12.10;99.90
19646;DHT22;9971;52.446;13.452;2023-02-15T23:55:19;12.30;99.90
